Terminal Aerodrome Forecast
Issued by NWS Charleston, WV

Current Version | Previous Version | Graphics & Text | Print | Product List | Glossary On
Versions: 1 2 3 4 5 6 7 8 9 10 11 12 13 14 15 16 17 18 19 20
040
FTUS41 KRLX 282323
TAFCRW
TAF
KCRW 282323Z 2900/2924 26005KT 6SM HZ VCTS BKN035CB
     FM290200 VRB03KT 6SM HZ BKN035
     FM290800 VRB03KT 5SM BR BKN020
     FM291600 27005KT P6SM BKN035
     FM292000 30006KT P6SM BKN200=

USA.gov is the U.S. government's official web portal to all federal, state and local government web resources and services.